KDUB Airport (Dubois Muni) Information

FAA: DUB - ICAO: KDUB

KDUB Airport Location

State Wyoming
County Fremont
City Dubois
KDUB Airport is 3 miles northwest of Dubois, WY.
Latitude 43-32-55.1450N
Longitude 109-41-26.9800W
Elevation 7,298ft

KDUB Airport METARs

METAR KDUB 262315Z AUTO 30023G31KT 10SM CLR 06/M11 A3012 RMK AO2
Altimeter 30.12"
Temperature 6.0°C (42.8°F)
Wind 300° at 23KT with gusts to 31KT
Clouds Skies are clear.
Visibility 10.0mi
Time observed: 2021-11-26T23:15:00Z

KDUB Airport Details

Status Operational
Activation September 1957
Ownership Public
Usage Public
Chart SALT LAKE CITY
ATC on-site No
Beacon schedule sunset-sunrise
Beacon color clear green

KDUB Airport Contacts

Owner TOWN OF DUBOIS
Owner address BOX 555, DUBOIS, WY 82513
Owner phone 307-455-2345
Manager ROBIN IRWIN
Manager address BOX 2001, CASPER, WY 82602
Manager phone 307-262-0606

KDUB Airport (Dubois Muni) Radio Frequencies

KDUB (Airport) Radio Frequencies

UNICOM N/A
Common traffic advisory frequency (CTAF) 122.9